Time;durP1;ratioP1;P1;durP2;ratioP2;P2;SDS_P1;SDS_P2;PMS_P1;PMS_P2;Temp;Humidity;BMP_temperature;BMP_pressure;BME280_temperature;BME280_humidity;BME280_pressure;Samples;Min_cycle;Max_cycle;Signal;HPM_P1;HPM_P2
2022/05/28 00:00:07;;;;;;;4.90;1.77;;;;;;;;;;5028829;28;20407;-87
2022/05/28 00:02:33;;;;;;;2.97;2.33;;;;;;;;;;5028278;28;20400;-87
2022/05/28 00:04:59;;;;;;;2.33;1.60;;;;;;;;;;5028854;28;20426;-87
2022/05/28 00:07:25;;;;;;;2.10;1.83;;;;;;;;;;5028484;28;20446;-87
2022/05/28 00:09:51;;;;;;;2.27;1.87;;;;;;;;;;5027314;28;20770;-86
2022/05/28 00:12:17;;;;;;;2.17;1.70;;;;;;;;;;5027903;28;20415;-86
2022/05/28 00:14:43;;;;;;;2.27;1.80;;;;;;;;;;5028441;28;20415;-87
2022/05/28 00:17:09;;;;;;;2.87;2.00;;;;;;;;;;5027546;28;20903;-87
2022/05/28 00:19:35;;;;;;;4.23;2.00;;;;;;;;;;5028957;28;20462;-85
2022/05/28 00:22:01;;;;;;;4.93;1.87;;;;;;;;;;5028492;28;20403;-87
2022/05/28 00:24:27;;;;;;;4.40;1.90;;;;;;;;;;5027769;28;20415;-86
2022/05/28 00:26:53;;;;;;;3.43;2.00;;;;;;;;;;5028657;28;20407;-85
2022/05/28 00:29:19;;;;;;;2.80;2.17;;;;;;;;;;5030745;28;20433;-86
2022/05/28 00:31:45;;;;;;;3.00;2.00;;;;;;;;;;5032183;28;20428;-85
2022/05/28 00:34:11;;;;;;;3.40;2.23;;;;;;;;;;5029477;28;20427;-86
2022/05/28 00:36:37;;;;;;;2.70;2.30;;;;;;;;;;5028903;28;20411;-86
2022/05/28 00:39:03;;;;;;;2.53;2.13;;;;;;;;;;5028521;28;20485;-86
2022/05/28 00:41:29;;;;;;;2.10;1.80;;;;;;;;;;5028627;28;20896;-86
2022/05/28 00:43:55;;;;;;;3.50;2.60;;;;;;;;;;5028434;28;20419;-86
2022/05/28 00:46:25;;;;;;;3.00;2.47;;;;;;;;;;5028216;28;20458;-86
2022/05/28 00:48:56;;;;;;;3.63;2.40;;;;;;;;;;5031596;28;20404;-84
2022/05/28 00:51:25;;;;;;;2.30;2.10;;;;;;;;;;5036170;28;20404;-85
2022/05/28 00:53:51;;;;;;;4.43;2.40;;;;;;;;;;5034269;28;20484;-83
2022/05/28 00:56:17;;;;;;;5.37;2.30;;;;;;;;;;5035948;28;20434;-86
2022/05/28 00:58:43;;;;;;;4.13;2.33;;;;;;;;;;5034805;28;20563;-85
2022/05/28 01:01:10;;;;;;;3.53;2.20;;;;;;;;;;5035280;28;20408;-85
2022/05/28 01:03:41;;;;;;;5.33;2.17;;;;;;;;;;5059114;23;20443;-82
2022/05/28 01:06:31;;;;;;;2.90;2.40;;;;;;;;;;5054324;28;20455;-82
2022/05/28 01:09:01;;;;;;;3.13;2.40;;;;;;;;;;5043526;28;20375;-82
2022/05/28 01:11:44;;;;;;;2.80;2.43;;;;;;;;;;5045443;28;20391;-82
2022/05/28 01:14:16;;;;;;;4.20;2.23;;;;;;;;;;5043103;28;20946;-82
2022/05/28 01:16:44;;;;;;;2.40;1.97;;;;;;;;;;5054337;28;20406;-82
2022/05/28 01:19:22;;;;;;;3.33;2.20;;;;;;;;;;5067572;28;20788;-82
2022/05/28 01:21:48;;;;;;;3.40;1.93;;;;;;;;;;5048673;28;20413;-81
2022/05/28 01:24:22;;;;;;;2.23;1.77;;;;;;;;;;5043215;28;20449;-82
2022/05/28 01:26:48;;;;;;;2.17;1.70;;;;;;;;;;5047114;28;20379;-82
2022/05/28 01:29:16;;;;;;;2.70;1.97;;;;;;;;;;5047649;28;20929;-82
2022/05/28 01:31:42;;;;;;;3.30;1.83;;;;;;;;;;5026956;28;20422;-83
2022/05/28 01:34:09;;;;;;;2.60;1.73;;;;;;;;;;5063020;28;20441;-82
2022/05/28 01:36:36;;;;;;;2.40;1.93;;;;;;;;;;5061612;28;20430;-82
2022/05/28 01:39:03;;;;;;;2.27;1.80;;;;;;;;;;5063972;28;20445;-82
2022/05/28 01:41:31;;;;;;;2.30;1.60;;;;;;;;;;5072866;28;20409;-82
2022/05/28 01:43:58;;;;;;;2.47;1.93;;;;;;;;;;5066972;28;20944;-80
2022/05/28 01:46:27;;;;;;;2.30;1.70;;;;;;;;;;5055705;28;20551;-81
2022/05/28 01:48:54;;;;;;;2.27;1.70;;;;;;;;;;5055303;28;20404;-81
2022/05/28 01:51:21;;;;;;;2.57;1.83;;;;;;;;;;5052641;28;20401;-81
2022/05/28 01:56:32;;;;;;;4.63;2.10;;;;;;;;;;5034302;28;20944;-80
2022/05/28 01:58:58;;;;;;;3.20;2.13;;;;;;;;;;5045845;28;20473;-81
2022/05/28 02:01:24;;;;;;;3.10;2.40;;;;;;;;;;5052908;28;20417;-81
2022/05/28 02:03:55;;;;;;;2.53;2.27;;;;;;;;;;5052416;28;20443;-81
2022/05/28 02:06:21;;;;;;;2.87;2.03;;;;;;;;;;5053342;28;20383;-82
2022/05/28 02:08:49;;;;;;;4.90;2.87;;;;;;;;;;5052266;28;20457;-82
2022/05/28 02:11:20;;;;;;;4.20;3.00;;;;;;;;;;5053123;28;20442;-82
2022/05/28 02:13:49;;;;;;;3.03;2.37;;;;;;;;;;5049450;28;20423;-82
2022/05/28 02:16:17;;;;;;;3.13;2.10;;;;;;;;;;5043964;28;20399;-82
2022/05/28 02:18:56;;;;;;;2.93;2.50;;;;;;;;;;5043045;28;20553;-82
2022/05/28 02:21:28;;;;;;;3.90;2.60;;;;;;;;;;5043373;28;20391;-82
2022/05/28 02:24:00;;;;;;;4.57;3.30;;;;;;;;;;5025744;28;20438;-82
2022/05/28 02:26:37;;;;;;;3.13;2.60;;;;;;;;;;5044475;28;20911;-82
2022/05/28 02:29:04;;;;;;;5.00;3.13;;;;;;;;;;5043681;28;20409;-81
2022/05/28 02:31:31;;;;;;;7.40;2.47;;;;;;;;;;5043508;28;20421;-82
2022/05/28 02:33:58;;;;;;;4.57;3.23;;;;;;;;;;5042937;28;20790;-82
2022/05/28 02:36:24;;;;;;;3.37;2.47;;;;;;;;;;5042775;28;20462;-82
2022/05/28 02:38:51;;;;;;;4.33;2.63;;;;;;;;;;5042701;28;20529;-82
2022/05/28 02:41:17;;;;;;;3.13;2.53;;;;;;;;;;5042947;28;20410;-82
2022/05/28 02:43:43;;;;;;;3.40;2.77;;;;;;;;;;5042609;28;20955;-82
2022/05/28 02:46:09;;;;;;;5.10;2.63;;;;;;;;;;5042637;28;20410;-82
2022/05/28 02:48:35;;;;;;;5.40;2.77;;;;;;;;;;5043122;28;20415;-82
2022/05/28 02:51:03;;;;;;;3.57;3.00;;;;;;;;;;5043393;28;20410;-82
2022/05/28 02:53:29;;;;;;;4.00;3.33;;;;;;;;;;5042858;28;20422;-83
2022/05/28 02:55:55;;;;;;;3.80;3.07;;;;;;;;;;5042996;28;20457;-82
2022/05/28 02:58:21;;;;;;;3.13;2.73;;;;;;;;;;5042460;28;20871;-81
2022/05/28 03:00:48;;;;;;;3.37;2.90;;;;;;;;;;5043452;28;20478;-83
2022/05/28 03:03:19;;;;;;;3.27;2.73;;;;;;;;;;5043416;28;20770;-82
2022/05/28 03:05:45;;;;;;;5.20;3.37;;;;;;;;;;5024931;28;20415;-82
2022/05/28 03:08:11;;;;;;;3.90;3.27;;;;;;;;;;5041997;28;20421;-82
2022/05/28 03:10:37;;;;;;;4.10;3.57;;;;;;;;;;5041651;28;20406;-82
2022/05/28 03:13:03;;;;;;;3.93;3.50;;;;;;;;;;5033323;28;20422;-82
2022/05/28 03:15:29;;;;;;;4.03;3.63;;;;;;;;;;5061841;28;20429;-82
2022/05/28 03:17:56;;;;;;;3.20;2.90;;;;;;;;;;5061704;28;20452;-83
2022/05/28 03:20:22;;;;;;;6.33;3.20;;;;;;;;;;5062113;28;20484;-82
2022/05/28 03:22:48;;;;;;;4.53;3.17;;;;;;;;;;5062149;28;20404;-82
2022/05/28 03:25:14;;;;;;;5.63;3.33;;;;;;;;;;5043256;28;20429;-82
2022/05/28 03:27:40;;;;;;;5.50;3.93;;;;;;;;;;5061081;28;20408;-81
2022/05/28 03:30:07;;;;;;;3.40;2.90;;;;;;;;;;5042003;28;20427;-82
2022/05/28 03:32:33;;;;;;;5.10;3.60;;;;;;;;;;5026969;28;20405;-82
2022/05/28 03:34:59;;;;;;;5.80;3.70;;;;;;;;;;5027784;28;20486;-82
2022/05/28 03:37:25;;;;;;;5.93;3.57;;;;;;;;;;5045329;28;20407;-80
2022/05/28 03:39:51;;;;;;;5.40;3.87;;;;;;;;;;5060876;28;20410;-82
2022/05/28 03:42:17;;;;;;;4.20;2.90;;;;;;;;;;5068872;28;20409;-82
2022/05/28 03:44:43;;;;;;;5.00;3.37;;;;;;;;;;5067134;28;20429;-83
2022/05/28 03:47:09;;;;;;;4.33;3.50;;;;;;;;;;5066741;28;20417;-82
2022/05/28 03:49:37;;;;;;;4.30;3.50;;;;;;;;;;5065157;28;20520;-82
2022/05/28 03:52:04;;;;;;;5.00;3.77;;;;;;;;;;5066016;28;20409;-82
2022/05/28 03:54:30;;;;;;;5.27;3.40;;;;;;;;;;5066620;28;20952;-82
2022/05/28 03:56:58;;;;;;;7.63;3.57;;;;;;;;;;5064089;28;20890;-82
2022/05/28 03:59:24;;;;;;;3.90;3.13;;;;;;;;;;5045606;28;20499;-82
2022/05/28 04:01:50;;;;;;;3.83;3.43;;;;;;;;;;5043937;28;20394;-81
2022/05/28 04:04:17;;;;;;;6.13;3.93;;;;;;;;;;5044803;28;20453;-82
2022/05/28 04:06:43;;;;;;;7.27;3.50;;;;;;;;;;5046132;28;20438;-82
2022/05/28 04:09:09;;;;;;;8.60;4.07;;;;;;;;;;5045584;28;20926;-81
2022/05/28 04:11:38;;;;;;;7.53;3.53;;;;;;;;;;5027628;28;20417;-82
2022/05/28 04:14:05;;;;;;;7.70;4.33;;;;;;;;;;5046787;28;20431;-82
2022/05/28 04:16:31;;;;;;;5.93;4.33;;;;;;;;;;5045269;28;20465;-82
2022/05/28 04:18:58;;;;;;;5.50;3.90;;;;;;;;;;5045615;28;20461;-82
2022/05/28 04:21:24;;;;;;;5.10;3.60;;;;;;;;;;5026892;28;20474;-82
2022/05/28 04:23:50;;;;;;;4.90;3.60;;;;;;;;;;5045296;28;20457;-82
2022/05/28 04:26:16;;;;;;;8.23;3.70;;;;;;;;;;5028423;28;20482;-82
2022/05/28 04:28:42;;;;;;;3.53;3.07;;;;;;;;;;5027158;28;20410;-82
2022/05/28 04:31:08;;;;;;;6.93;4.00;;;;;;;;;;5045972;28;20410;-82
2022/05/28 04:33:34;;;;;;;11.03;3.73;;;;;;;;;;5045673;28;20434;-82
2022/05/28 04:36:00;;;;;;;4.93;3.50;;;;;;;;;;5045593;28;20414;-81
2022/05/28 04:38:26;;;;;;;6.50;3.27;;;;;;;;;;5044893;28;20516;-82
2022/05/28 04:40:52;;;;;;;8.93;3.53;;;;;;;;;;5044723;28;20414;-81
2022/05/28 04:43:18;;;;;;;7.17;4.47;;;;;;;;;;5044031;28;20422;-82
2022/05/28 04:45:46;;;;;;;6.17;3.50;;;;;;;;;;5044980;28;20438;-82
2022/05/28 04:48:12;;;;;;;5.57;3.53;;;;;;;;;;5045642;28;20434;-82
2022/05/28 04:50:38;;;;;;;10.73;4.30;;;;;;;;;;5045242;28;20414;-82
2022/05/28 04:53:04;;;;;;;4.30;3.47;;;;;;;;;;5045286;28;20406;-82
2022/05/28 04:55:31;;;;;;;6.90;3.97;;;;;;;;;;5044394;28;20427;-82
2022/05/28 04:57:57;;;;;;;6.67;3.70;;;;;;;;;;5046058;28;20465;-81
2022/05/28 05:00:24;;;;;;;12.40;3.97;;;;;;;;;;5047943;28;20403;-82
2022/05/28 05:02:50;;;;;;;6.50;2.93;;;;;;;;;;5048201;28;20391;-82
2022/05/28 05:05:16;;;;;;;7.13;3.57;;;;;;;;;;5044964;28;20514;-81
2022/05/28 05:07:42;;;;;;;9.53;2.80;;;;;;;;;;5044412;28;20405;-82
2022/05/28 05:10:09;;;;;;;4.73;3.37;;;;;;;;;;5045317;28;20489;-81
2022/05/28 05:12:36;;;;;;;7.67;3.43;;;;;;;;;;5044871;28;20402;-82
2022/05/28 05:15:02;;;;;;;4.40;2.67;;;;;;;;;;5044598;28;20427;-82
2022/05/28 05:17:28;;;;;;;8.00;3.57;;;;;;;;;;5044010;28;20403;-81
2022/05/28 05:19:54;;;;;;;12.17;3.17;;;;;;;;;;5044691;28;20552;-82
2022/05/28 05:22:20;;;;;;;10.87;2.67;;;;;;;;;;5044280;28;20415;-82
2022/05/28 05:24:46;;;;;;;6.43;3.00;;;;;;;;;;5038069;28;20426;-80
2022/05/28 05:27:13;;;;;;;6.97;2.80;;;;;;;;;;5039391;28;20418;-80
2022/05/28 05:29:39;;;;;;;3.87;2.33;;;;;;;;;;5035719;28;20407;-81
2022/05/28 05:32:06;;;;;;;6.83;3.10;;;;;;;;;;5035776;28;20411;-80
2022/05/28 05:34:32;;;;;;;4.07;2.57;;;;;;;;;;5043377;28;20465;-81
2022/05/28 05:36:58;;;;;;;8.97;2.43;;;;;;;;;;5029420;28;20482;-82
2022/05/28 05:39:24;;;;;;;6.63;2.73;;;;;;;;;;5047620;28;20481;-81
2022/05/28 05:41:50;;;;;;;13.07;3.00;;;;;;;;;;5036249;28;20414;-81
2022/05/28 05:44:17;;;;;;;11.03;2.93;;;;;;;;;;5052979;28;20422;-81
2022/05/28 05:46:43;;;;;;;5.43;2.70;;;;;;;;;;5052411;28;20395;-81
2022/05/28 05:49:10;;;;;;;8.70;2.70;;;;;;;;;;5043619;28;20437;-81
2022/05/28 05:51:40;;;;;;;6.60;2.70;;;;;;;;;;5048854;28;20418;-81
2022/05/28 05:54:06;;;;;;;6.10;3.53;;;;;;;;;;5046972;28;20463;-82
2022/05/28 05:56:32;;;;;;;10.13;3.20;;;;;;;;;;5044691;28;20419;-82
2022/05/28 05:58:58;;;;;;;6.60;2.83;;;;;;;;;;5044878;28;20465;-82
2022/05/28 06:01:25;;;;;;;9.40;3.23;;;;;;;;;;5045004;28;20448;-82
2022/05/28 06:03:51;;;;;;;8.47;3.20;;;;;;;;;;5044247;28;20441;-82
2022/05/28 06:06:18;;;;;;;9.50;2.67;;;;;;;;;;5044225;28;20437;-81
2022/05/28 06:08:44;;;;;;;8.00;4.00;;;;;;;;;;5044225;28;20493;-82
2022/05/28 06:11:10;;;;;;;11.10;2.80;;;;;;;;;;5043858;28;20898;-82
2022/05/28 06:13:37;;;;;;;4.73;2.90;;;;;;;;;;5044350;28;20466;-82
2022/05/28 06:16:03;;;;;;;3.70;2.20;;;;;;;;;;5026123;28;20410;-81
2022/05/28 06:18:30;;;;;;;7.03;2.40;;;;;;;;;;5043616;28;20533;-82
2022/05/28 06:20:56;;;;;;;7.40;2.30;;;;;;;;;;5043500;28;20456;-81
2022/05/28 06:23:22;;;;;;;7.47;2.60;;;;;;;;;;5043384;28;20409;-81
2022/05/28 06:25:48;;;;;;;10.67;2.60;;;;;;;;;;5043747;28;20437;-82
2022/05/28 06:28:14;;;;;;;10.73;2.27;;;;;;;;;;5026354;28;20489;-81
2022/05/28 06:30:43;;;;;;;15.43;3.50;;;;;;;;;;5043772;28;20405;-82
2022/05/28 06:33:09;;;;;;;4.03;2.30;;;;;;;;;;5044533;28;20907;-81
2022/05/28 06:35:35;;;;;;;6.63;2.40;;;;;;;;;;5042238;28;20841;-82
2022/05/28 06:38:01;;;;;;;8.40;3.10;;;;;;;;;;5042684;28;20465;-82
2022/05/28 06:40:28;;;;;;;8.17;2.83;;;;;;;;;;5043457;28;20406;-81
2022/05/28 06:42:56;;;;;;;12.23;3.27;;;;;;;;;;5043060;28;20986;-81
2022/05/28 06:45:22;;;;;;;9.70;3.10;;;;;;;;;;5026032;28;20426;-82
2022/05/28 06:47:48;;;;;;;8.40;2.93;;;;;;;;;;5043327;28;20414;-82
2022/05/28 06:53:01;;;;;;;15.23;2.83;;;;;;;;;;5043492;28;20414;-82
2022/05/28 06:55:27;;;;;;;6.50;2.40;;;;;;;;;;5044015;28;20414;-82
2022/05/28 06:57:53;;;;;;;6.23;2.10;;;;;;;;;;5044708;28;20487;-81
2022/05/28 07:00:19;;;;;;;5.30;2.30;;;;;;;;;;5043866;28;20399;-81
2022/05/28 07:02:46;;;;;;;6.87;2.80;;;;;;;;;;5043308;28;20405;-82
2022/05/28 07:05:13;;;;;;;3.97;2.60;;;;;;;;;;5062047;23;20640;-83
2022/05/28 07:07:39;;;;;;;7.57;2.20;;;;;;;;;;5023128;28;20407;-84
2022/05/28 07:10:05;;;;;;;13.90;2.60;;;;;;;;;;5024322;28;20500;-84
2022/05/28 07:12:32;;;;;;;10.03;3.27;;;;;;;;;;5023951;28;20462;-84
2022/05/28 07:14:58;;;;;;;11.20;3.10;;;;;;;;;;5024222;28;20495;-84
2022/05/28 07:17:25;;;;;;;6.10;2.23;;;;;;;;;;5005760;28;20400;-82
2022/05/28 07:19:51;;;;;;;5.90;2.93;;;;;;;;;;5022805;28;20459;-84
2022/05/28 07:22:17;;;;;;;7.30;2.80;;;;;;;;;;5007416;28;20509;-82
2022/05/28 07:24:44;;;;;;;6.40;2.47;;;;;;;;;;5025254;28;20423;-83
2022/05/28 07:27:11;;;;;;;7.17;3.10;;;;;;;;;;5006317;28;20411;-83
2022/05/28 07:29:39;;;;;;;9.83;3.00;;;;;;;;;;5026364;28;20438;-84
2022/05/28 07:32:05;;;;;;;10.30;2.80;;;;;;;;;;5009818;28;20415;-83
2022/05/28 07:34:32;;;;;;;15.33;3.60;;;;;;;;;;5005197;28;20435;-83
2022/05/28 07:36:58;;;;;;;8.70;3.30;;;;;;;;;;5003865;28;20828;-82
2022/05/28 07:39:24;;;;;;;7.70;3.00;;;;;;;;;;5019799;28;20550;-82
2022/05/28 07:41:50;;;;;;;11.60;3.73;;;;;;;;;;5003468;28;20414;-83
2022/05/28 07:44:17;;;;;;;9.00;3.10;;;;;;;;;;5019861;28;20432;-82
2022/05/28 07:46:43;;;;;;;8.33;4.07;;;;;;;;;;5021637;28;20403;-83
2022/05/28 07:49:09;;;;;;;8.63;3.30;;;;;;;;;;5003564;28;20418;-83
2022/05/28 07:51:35;;;;;;;14.63;3.23;;;;;;;;;;5021707;28;20888;-83
2022/05/28 07:54:02;;;;;;;7.47;3.07;;;;;;;;;;5022621;28;20426;-83
2022/05/28 07:56:28;;;;;;;9.90;2.27;;;;;;;;;;5023324;28;20411;-86
2022/05/28 07:58:58;;;;;;;7.37;3.13;;;;;;;;;;5022484;28;20505;-82
2022/05/28 08:01:25;;;;;;;6.10;2.70;;;;;;;;;;5022622;28;20409;-83
2022/05/28 08:03:52;;;;;;;4.10;2.73;;;;;;;;;;5005912;28;20423;-82
2022/05/28 08:06:18;;;;;;;6.30;2.60;;;;;;;;;;5023379;28;20418;-82
2022/05/28 08:08:45;;;;;;;6.40;2.67;;;;;;;;;;5027162;28;20431;-85
2022/05/28 08:11:11;;;;;;;13.20;2.47;;;;;;;;;;5011810;28;20425;-83
2022/05/28 08:13:37;;;;;;;5.40;2.73;;;;;;;;;;5026136;28;20422;-84
2022/05/28 08:16:04;;;;;;;8.77;2.90;;;;;;;;;;5024873;28;20426;-84
2022/05/28 08:18:30;;;;;;;12.37;2.87;;;;;;;;;;5025197;28;20500;-85
2022/05/28 08:23:43;;;;;;;4.93;2.30;;;;;;;;;;5043135;28;20428;-85
2022/05/28 08:26:10;;;;;;;6.90;2.10;;;;;;;;;;5042753;28;20453;-84
2022/05/28 08:28:37;;;;;;;5.50;1.93;;;;;;;;;;5042726;28;20426;-83
2022/05/28 08:31:03;;;;;;;5.90;2.73;;;;;;;;;;5024560;28;20411;-84
2022/05/28 08:33:29;;;;;;;4.77;2.40;;;;;;;;;;5042203;28;20891;-85
2022/05/28 08:35:56;;;;;;;5.87;2.37;;;;;;;;;;5040828;28;20434;-83
2022/05/28 08:38:23;;;;;;;7.50;2.50;;;;;;;;;;5022367;28;20434;-85
2022/05/28 08:40:56;;;;;;;5.07;2.33;;;;;;;;;;5029925;28;20422;-83
2022/05/28 08:43:24;;;;;;;10.03;2.53;;;;;;;;;;5024146;28;20417;-83
2022/05/28 08:45:51;;;;;;;6.23;3.27;;;;;;;;;;5024328;28;20950;-85
2022/05/28 08:48:20;;;;;;;5.53;1.90;;;;;;;;;;5039274;28;20923;-85
2022/05/28 08:50:54;;;;;;;9.60;2.70;;;;;;;;;;5023374;28;20426;-84
2022/05/28 08:53:26;;;;;;;3.20;1.87;;;;;;;;;;5041550;28;20406;-85
2022/05/28 08:55:53;;;;;;;5.17;2.37;;;;;;;;;;5024448;28;20450;-84
2022/05/28 08:58:22;;;;;;;4.47;1.87;;;;;;;;;;5024063;28;20450;-85
2022/05/28 09:00:50;;;;;;;6.50;2.03;;;;;;;;;;5041582;28;20502;-85
2022/05/28 09:03:16;;;;;;;3.73;1.70;;;;;;;;;;5023730;28;20391;-85
2022/05/28 09:06:06;;;;;;;3.70;2.10;;;;;;;;;;5024451;28;20499;-85
2022/05/28 09:08:46;;;;;;;3.20;1.33;;;;;;;;;;5017486;28;20920;-84
2022/05/28 09:11:17;;;;;;;4.37;1.50;;;;;;;;;;5024208;28;20410;-83
2022/05/28 09:13:46;;;;;;;8.23;2.50;;;;;;;;;;5040714;28;20432;-85
2022/05/28 09:16:45;;;;;;;7.07;1.30;;;;;;;;;;5023283;28;20427;-86
2022/05/28 09:19:16;;;;;;;7.20;1.80;;;;;;;;;;5019257;28;20476;-84
2022/05/28 09:21:44;;;;;;;4.30;1.40;;;;;;;;;;5041505;28;20480;-84
2022/05/28 09:24:14;;;;;;;4.50;1.60;;;;;;;;;;5040692;28;20495;-83
2022/05/28 09:26:57;;;;;;;2.70;1.30;;;;;;;;;;5022566;28;20415;-84
2022/05/28 09:29:42;;;;;;;3.20;1.10;;;;;;;;;;5022565;28;20402;-83
2022/05/28 09:32:23;;;;;;;2.17;1.20;;;;;;;;;;5023127;28;20434;-84
2022/05/28 09:34:55;;;;;;;5.93;2.50;;;;;;;;;;5040559;28;20414;-84
2022/05/28 09:37:21;;;;;;;6.63;1.70;;;;;;;;;;5052973;28;20406;-82
2022/05/28 09:39:53;;;;;;;4.90;1.67;;;;;;;;;;5036024;28;20454;-81
2022/05/28 09:42:35;;;;;;;6.83;2.33;;;;;;;;;;5033732;28;20411;-84
2022/05/28 09:45:04;;;;;;;3.73;1.27;;;;;;;;;;5023574;28;20585;-85
2022/05/28 09:47:42;;;;;;;8.33;2.47;;;;;;;;;;5023278;28;20403;-84
2022/05/28 09:50:16;;;;;;;5.03;1.87;;;;;;;;;;5041226;28;20425;-84
2022/05/28 09:55:33;;;;;;;4.80;1.40;;;;;;;;;;4994920;28;20790;-84
2022/05/28 09:58:02;;;;;;;5.37;1.63;;;;;;;;;;5040946;28;20810;-84
2022/05/28 10:00:28;;;;;;;4.30;1.87;;;;;;;;;;5023401;28;20824;-84
2022/05/28 10:05:47;;;;;;;4.40;1.67;;;;;;;;;;5040403;28;20461;-85
2022/05/28 10:08:14;;;;;;;6.53;2.03;;;;;;;;;;5041456;28;20397;-84
2022/05/28 10:10:40;;;;;;;6.27;4.57;;;;;;;;;;5022649;28;20422;-83
2022/05/28 10:13:14;;;;;;;7.67;3.00;;;;;;;;;;5040853;28;20402;-85
2022/05/28 10:15:42;;;;;;;4.63;2.77;;;;;;;;;;5022587;28;20478;-83
2022/05/28 10:18:11;;;;;;;5.17;2.37;;;;;;;;;;5039996;28;20465;-84
2022/05/28 10:20:37;;;;;;;2.73;1.30;;;;;;;;;;5021771;28;20446;-84
2022/05/28 10:23:08;;;;;;;3.57;1.57;;;;;;;;;;5022222;28;20403;-84
2022/05/28 10:25:41;;;;;;;6.03;1.97;;;;;;;;;;5023442;28;20435;-84
2022/05/28 10:28:08;;;;;;;3.00;1.30;;;;;;;;;;5045073;28;20422;-82
2022/05/28 10:30:42;;;;;;;4.90;1.60;;;;;;;;;;5048665;28;20414;-85
2022/05/28 10:33:31;;;;;;;4.37;1.30;;;;;;;;;;5027381;28;20413;-84
2022/05/28 10:36:08;;;;;;;3.57;1.30;;;;;;;;;;5043128;28;20422;-85
2022/05/28 10:38:34;;;;;;;3.83;1.33;;;;;;;;;;5041216;28;20474;-84
2022/05/28 10:41:02;;;;;;;2.33;1.30;;;;;;;;;;5023658;28;20411;-85
2022/05/28 10:43:32;;;;;;;2.90;1.37;;;;;;;;;;5040603;28;20449;-85
2022/05/28 10:46:16;;;;;;;6.77;2.00;;;;;;;;;;5040267;28;20906;-85
2022/05/28 10:48:51;;;;;;;4.50;1.90;;;;;;;;;;5022289;28;20425;-85
2022/05/28 10:51:17;;;;;;;2.67;1.30;;;;;;;;;;5040733;28;20409;-83
2022/05/28 10:54:02;;;;;;;3.33;1.50;;;;;;;;;;5022277;28;20414;-85
2022/05/28 10:56:47;;;;;;;5.13;1.57;;;;;;;;;;5022444;28;20467;-85
2022/05/28 10:59:14;;;;;;;5.27;1.50;;;;;;;;;;5046067;28;20865;-84
2022/05/28 11:01:45;;;;;;;2.73;1.53;;;;;;;;;;5040250;28;20409;-84
2022/05/28 11:04:14;;;;;;;12.57;7.17;;;;;;;;;;5022313;28;20407;-85
2022/05/28 11:06:49;;;;;;;5.50;1.57;;;;;;;;;;5022362;28;20469;-85
2022/05/28 11:09:26;;;;;;;4.60;1.97;;;;;;;;;;5036944;28;20455;-83
2022/05/28 11:11:52;;;;;;;8.03;1.70;;;;;;;;;;5035611;28;20405;-83
2022/05/28 11:14:45;;;;;;;3.37;1.57;;;;;;;;;;5036433;28;20427;-83
2022/05/28 11:17:29;;;;;;;5.00;1.27;;;;;;;;;;5022246;28;20502;-84
2022/05/28 11:19:55;;;;;;;5.87;1.80;;;;;;;;;;5020812;28;20438;-85
2022/05/28 11:22:39;;;;;;;2.80;1.27;;;;;;;;;;5038756;28;20568;-83
2022/05/28 11:25:25;;;;;;;2.90;1.20;;;;;;;;;;5021632;28;20426;-85
2022/05/28 11:27:52;;;;;;;3.40;1.10;;;;;;;;;;5021151;28;20398;-83
2022/05/28 11:30:23;;;;;;;3.10;1.53;;;;;;;;;;5022546;28;20434;-84
2022/05/28 11:32:53;;;;;;;6.83;2.20;;;;;;;;;;5040115;28;20391;-85
2022/05/28 11:35:28;;;;;;;3.83;1.40;;;;;;;;;;5021127;28;20431;-84
2022/05/28 11:38:10;;;;;;;4.63;1.80;;;;;;;;;;5039148;28;20456;-84
2022/05/28 11:40:47;;;;;;;6.00;1.90;;;;;;;;;;5038604;28;20406;-84
2022/05/28 11:43:19;;;;;;;2.70;1.53;;;;;;;;;;5038771;28;20458;-84
2022/05/28 11:45:55;;;;;;;4.67;2.10;;;;;;;;;;5038621;28;20426;-84
2022/05/28 11:51:27;;;;;;;5.87;1.80;;;;;;;;;;5038897;28;20497;-85
2022/05/28 11:51:29;;;;;;;3.87;1.70;;;;;;;;;;5039429;28;20394;-85
2022/05/28 11:53:59;;;;;;;5.83;1.30;;;;;;;;;;5042380;28;20425;-85
2022/05/28 11:56:28;;;;;;;2.63;1.37;;;;;;;;;;5042481;28;20418;-86
2022/05/28 11:59:12;;;;;;;5.67;1.57;;;;;;;;;;5025709;28;20460;-85
2022/05/28 12:01:51;;;;;;;3.43;1.43;;;;;;;;;;5043050;28;20465;-86
2022/05/28 12:04:18;;;;;;;5.10;1.63;;;;;;;;;;5042773;28;21005;-85
2022/05/28 12:06:56;;;;;;;12.53;2.20;;;;;;;;;;5024785;28;20505;-86
2022/05/28 12:09:25;;;;;;;2.30;1.10;;;;;;;;;;5043328;28;20379;-85
2022/05/28 12:12:01;;;;;;;3.73;1.23;;;;;;;;;;5042607;28;20406;-85
2022/05/28 12:14:34;;;;;;;2.73;1.30;;;;;;;;;;5024559;28;20433;-84
2022/05/28 12:17:07;;;;;;;3.37;1.23;;;;;;;;;;5044547;28;20777;-84
2022/05/28 12:19:34;;;;;;;4.40;3.30;;;;;;;;;;5026175;28;20460;-84
2022/05/28 12:22:22;;;;;;;2.60;1.23;;;;;;;;;;5042583;28;20779;-84
2022/05/28 12:25:09;;;;;;;3.00;1.10;;;;;;;;;;5041958;28;20422;-84
2022/05/28 12:27:40;;;;;;;2.20;1.13;;;;;;;;;;5018752;28;20496;-83
2022/05/28 12:30:08;;;;;;;2.50;0.97;;;;;;;;;;5042645;28;20437;-84
2022/05/28 12:32:50;;;;;;;5.10;1.20;;;;;;;;;;5041270;28;20417;-86
2022/05/28 12:35:16;;;;;;;2.37;1.20;;;;;;;;;;5027541;28;20497;-83
2022/05/28 12:37:51;;;;;;;3.47;1.73;;;;;;;;;;5028768;28;20422;-84
2022/05/28 12:40:35;;;;;;;3.87;1.27;;;;;;;;;;5050176;28;20414;-86
2022/05/28 12:43:19;;;;;;;3.40;1.20;;;;;;;;;;5047275;28;20434;-83
2022/05/28 12:45:47;;;;;;;2.73;1.20;;;;;;;;;;5029945;28;20435;-85
2022/05/28 12:48:15;;;;;;;3.73;1.60;;;;;;;;;;5045830;28;20403;-85
2022/05/28 12:50:44;;;;;;;3.20;1.37;;;;;;;;;;5025600;28;20414;-85
2022/05/28 12:53:10;;;;;;;5.23;1.20;;;;;;;;;;5042610;28;20457;-85
2022/05/28 12:55:40;;;;;;;2.50;1.10;;;;;;;;;;5029927;28;20470;-82
2022/05/28 12:58:26;;;;;;;2.80;1.10;;;;;;;;;;5053406;28;20626;-82
2022/05/28 13:00:54;;;;;;;4.37;1.53;;;;;;;;;;5025550;28;20418;-87
2022/05/28 13:03:22;;;;;;;3.03;1.57;;;;;;;;;;5025138;28;20410;-86
2022/05/28 13:05:51;;;;;;;1.70;1.00;;;;;;;;;;5033376;23;20885;-83
2022/05/28 13:08:21;;;;;;;2.50;1.03;;;;;;;;;;5039965;28;20493;-82
2022/05/28 13:10:51;;;;;;;5.93;1.23;;;;;;;;;;5023137;28;20414;-83
2022/05/28 13:13:36;;;;;;;1.80;0.90;;;;;;;;;;5042962;28;20402;-83
2022/05/28 13:16:20;;;;;;;2.27;1.40;;;;;;;;;;5041001;28;20418;-84
2022/05/28 13:18:46;;;;;;;6.93;1.17;;;;;;;;;;5023370;28;20489;-83
2022/05/28 13:21:31;;;;;;;3.30;1.10;;;;;;;;;;5041384;28;20411;-83
2022/05/28 13:24:15;;;;;;;2.27;1.47;;;;;;;;;;5042035;28;20423;-83
2022/05/28 13:26:52;;;;;;;3.13;1.13;;;;;;;;;;5041595;28;20476;-83
2022/05/28 13:29:27;;;;;;;6.77;1.20;;;;;;;;;;5041901;28;20456;-83
2022/05/28 13:32:02;;;;;;;9.83;1.47;;;;;;;;;;5044762;28;20391;-82
2022/05/28 13:34:29;;;;;;;4.20;1.17;;;;;;;;;;5026680;28;20417;-83
2022/05/28 13:37:00;;;;;;;3.20;1.63;;;;;;;;;;5044012;28;20419;-83
2022/05/28 13:39:28;;;;;;;3.90;2.10;;;;;;;;;;5043855;28;20445;-83
2022/05/28 13:41:56;;;;;;;4.70;1.13;;;;;;;;;;5043465;28;20418;-83
2022/05/28 13:44:23;;;;;;;2.57;1.20;;;;;;;;;;5025659;28;20403;-83
2022/05/28 13:46:55;;;;;;;5.93;1.17;;;;;;;;;;5026098;28;20422;-83
2022/05/28 13:49:23;;;;;;;2.40;1.00;;;;;;;;;;5044341;28;20403;-83
2022/05/28 13:51:51;;;;;;;8.83;1.37;;;;;;;;;;5043385;28;20784;-83
2022/05/28 13:54:17;;;;;;;3.90;1.50;;;;;;;;;;5026549;28;20482;-84
2022/05/28 13:56:51;;;;;;;2.27;1.00;;;;;;;;;;5025119;28;20427;-83
2022/05/28 13:59:27;;;;;;;3.47;1.17;;;;;;;;;;5025241;28;20430;-83
2022/05/28 14:01:54;;;;;;;7.50;1.70;;;;;;;;;;5025401;28;20407;-83
2022/05/28 14:04:22;;;;;;;5.30;1.17;;;;;;;;;;5042956;28;20406;-84
2022/05/28 14:06:58;;;;;;;4.00;1.00;;;;;;;;;;5043471;28;20430;-83
2022/05/28 14:09:36;;;;;;;2.57;1.10;;;;;;;;;;5043597;28;20433;-83
2022/05/28 14:12:02;;;;;;;6.20;1.67;;;;;;;;;;5044438;28;20414;-83
2022/05/28 14:14:28;;;;;;;4.20;1.20;;;;;;;;;;5043993;28;20472;-83
2022/05/28 14:16:59;;;;;;;2.17;0.90;;;;;;;;;;5044249;28;20496;-83
2022/05/28 14:19:28;;;;;;;3.73;1.10;;;;;;;;;;5025525;28;20457;-83
2022/05/28 14:21:56;;;;;;;7.40;2.60;;;;;;;;;;5024510;28;20417;-83
2022/05/28 14:24:25;;;;;;;4.50;1.37;;;;;;;;;;5042356;28;20399;-83
2022/05/28 14:26:53;;;;;;;2.67;1.10;;;;;;;;;;5041838;28;20512;-83
2022/05/28 14:29:20;;;;;;;4.90;1.10;;;;;;;;;;5042064;28;20407;-83
2022/05/28 14:31:47;;;;;;;5.23;1.30;;;;;;;;;;5041903;28;20845;-83
2022/05/28 14:34:16;;;;;;;2.17;1.00;;;;;;;;;;5024150;28;20468;-83
2022/05/28 14:36:48;;;;;;;3.50;1.00;;;;;;;;;;5042408;28;20469;-83
2022/05/28 14:39:16;;;;;;;5.60;1.40;;;;;;;;;;5048670;28;20449;-82
2022/05/28 14:41:47;;;;;;;3.17;1.30;;;;;;;;;;5045866;28;20409;-83
2022/05/28 14:44:18;;;;;;;4.70;1.10;;;;;;;;;;5042465;28;20794;-83
2022/05/28 14:46:46;;;;;;;4.23;1.30;;;;;;;;;;5042725;28;20491;-83
2022/05/28 14:49:29;;;;;;;4.53;1.20;;;;;;;;;;5042196;28;20462;-83
2022/05/28 14:52:07;;;;;;;5.17;1.20;;;;;;;;;;5042355;28;20395;-82
2022/05/28 14:54:33;;;;;;;2.70;1.10;;;;;;;;;;5041516;28;20762;-83
2022/05/28 14:56:59;;;;;;;3.00;1.00;;;;;;;;;;5039413;28;20435;-82
2022/05/28 14:59:34;;;;;;;2.37;1.00;;;;;;;;;;5034780;28;20600;-82
2022/05/28 15:02:10;;;;;;;2.43;1.30;;;;;;;;;;5038974;28;20406;-83
2022/05/28 15:04:36;;;;;;;3.20;1.33;;;;;;;;;;5040215;28;20394;-83
2022/05/28 15:07:07;;;;;;;2.97;1.17;;;;;;;;;;5037669;28;20509;-83
2022/05/28 15:09:45;;;;;;;4.97;1.33;;;;;;;;;;5036791;28;20405;-82